Time;durP1;ratioP1;P1;durP2;ratioP2;P2;SDS_P1;SDS_P2;PMS_P1;PMS_P2;Temp;Humidity;BMP_temperature;BMP_pressure;BME280_temperature;BME280_humidity;BME280_pressure;Samples;Min_cycle;Max_cycle;Signal;HPM_P1;HPM_P2
2023/03/25 00:08:30;;;;;;;4.43;0.75;;;9.10;83.10;;;;;;4743499;29;86475;-79
2023/03/25 00:10:57;;;;;;;5.22;0.70;;;9.00;83.40;;;;;;4744987;29;87156;-79
2023/03/25 00:13:24;;;;;;;2.25;0.80;;;9.00;83.60;;;;;;4745911;29;86521;-79
2023/03/25 00:15:52;;;;;;;2.40;0.77;;;9.00;83.70;;;;;;4745591;29;86319;-79
2023/03/25 00:45:20;;;;;;;4.50;1.10;;;8.80;85.30;;;;;;4744399;29;85905;-79
2023/03/25 00:47:46;;;;;;;5.72;0.80;;;8.80;85.40;;;;;;4744184;29;90838;-79
2023/03/25 00:50:12;;;;;;;1.85;0.50;;;8.70;85.80;;;;;;4745779;29;87843;-79
2023/03/25 00:52:37;;;;;;;3.03;0.70;;;8.70;85.80;;;;;;4736471;29;86290;-79
2023/03/25 00:55:04;;;;;;;2.78;1.27;;;8.70;85.90;;;;;;4744748;29;85929;-79
2023/03/25 00:57:35;;;;;;;3.35;0.75;;;8.70;86.20;;;;;;4744282;29;86109;-79
2023/03/25 01:00:05;;;;;;;3.58;1.08;;;8.60;86.40;;;;;;4744959;29;86595;-79
2023/03/25 01:02:32;;;;;;;3.42;0.70;;;8.60;86.60;;;;;;4749822;29;86243;-79
2023/03/25 01:04:58;;;;;;;7.13;1.05;;;8.60;86.80;;;;;;4742345;29;86921;-79
2023/03/25 01:07:24;;;;;;;5.20;0.70;;;8.60;86.90;;;;;;4744968;29;85962;-79
2023/03/25 01:09:50;;;;;;;4.55;1.13;;;8.50;87.00;;;;;;4743943;29;86961;-79
2023/03/25 01:12:17;;;;;;;3.63;0.77;;;8.50;86.70;;;;;;4750401;29;86727;-80
2023/03/25 01:14:43;;;;;;;4.40;2.03;;;8.50;86.70;;;;;;4745830;29;86388;-79
2023/03/25 01:17:10;;;;;;;7.43;1.08;;;8.50;87.10;;;;;;4742561;29;89773;-79
2023/03/25 01:19:36;;;;;;;5.57;0.85;;;8.40;87.40;;;;;;4744339;29;86956;-79
2023/03/25 01:22:01;;;;;;;5.35;0.80;;;8.40;87.50;;;;;;4743814;29;86264;-79
2023/03/25 01:24:27;;;;;;;7.57;1.02;;;8.40;87.40;;;;;;4742550;29;86581;-79
2023/03/25 01:26:53;;;;;;;3.50;0.70;;;8.40;87.50;;;;;;4744267;29;86380;-79
2023/03/25 01:29:20;;;;;;;4.85;0.77;;;8.40;87.60;;;;;;4745376;29;86560;-79
2023/03/25 01:31:46;;;;;;;3.83;0.75;;;8.40;87.60;;;;;;4744610;29;86586;-79
2023/03/25 01:34:13;;;;;;;1.95;0.63;;;8.40;87.50;;;;;;4746332;29;86442;-79
2023/03/25 01:36:40;;;;;;;3.67;1.10;;;8.40;87.60;;;;;;4743723;29;87309;-79
2023/03/25 01:39:07;;;;;;;2.15;1.02;;;8.40;87.80;;;;;;4734946;29;88075;-79
2023/03/25 01:41:35;;;;;;;7.40;1.50;;;8.40;87.80;;;;;;4744256;29;86285;-79
2023/03/25 01:47:13;;;;;;;4.70;1.42;;;8.40;88.00;;;;;;4706892;29;86193;-79
2023/03/25 01:49:44;;;;;;;7.45;1.27;;;8.50;88.20;;;;;;4704560;29;86872;-80
2023/03/25 01:52:22;;;;;;;6.53;1.42;;;8.50;87.80;;;;;;4702902;29;86837;-79
2023/03/25 01:54:52;;;;;;;7.72;1.40;;;8.60;87.80;;;;;;4705751;29;86541;-79
2023/03/25 01:57:20;;;;;;;5.00;1.27;;;8.60;87.30;;;;;;4705968;29;87641;-79
2023/03/25 01:59:46;;;;;;;7.30;2.20;;;8.70;86.90;;;;;;4705182;29;87104;-79
2023/03/25 02:02:18;;;;;;;5.07;1.30;;;8.70;86.40;;;;;;4698873;29;86879;-79
2023/03/25 02:05:02;;;;;;;8.25;2.13;;;8.70;86.10;;;;;;4705873;29;86781;-79
2023/03/25 02:07:32;;;;;;;4.20;0.98;;;8.80;86.30;;;;;;4697391;29;89086;-79
2023/03/25 02:10:04;;;;;;;6.30;1.35;;;8.80;85.70;;;;;;4707179;29;86795;-79
2023/03/25 02:12:31;;;;;;;8.07;1.27;;;8.80;86.30;;;;;;4696457;29;86205;-79
2023/03/25 02:15:03;;;;;;;6.45;1.02;;;8.80;88.20;;;;;;4701605;29;86810;-79
2023/03/25 02:17:42;;;;;;;8.10;1.15;;;8.70;89.70;;;;;;4712803;29;91645;-79
2023/03/25 02:20:48;;;;;;;6.07;1.08;;;8.60;90.00;;;;;;4739628;29;87171;-79
2023/03/25 02:23:40;;;;;;;5.50;1.17;;;8.60;90.10;;;;;;4725134;29;86559;-79
2023/03/25 02:26:48;;;;;;;8.18;1.10;;;8.60;89.70;;;;;;4740581;29;86762;-80
2023/03/25 02:29:42;;;;;;;8.48;1.08;;;8.60;89.30;;;;;;4741760;29;87680;-79
2023/03/25 02:32:45;;;;;;;8.07;1.15;;;8.60;88.00;;;;;;4740358;29;86316;-79
2023/03/25 02:35:36;;;;;;;7.40;1.35;;;8.70;87.80;;;;;;4743771;29;87704;-79
2023/03/25 02:38:35;;;;;;;6.43;1.20;;;8.70;87.00;;;;;;4713682;29;87073;-79
2023/03/25 02:41:33;;;;;;;5.90;1.17;;;8.70;86.10;;;;;;4714281;29;89952;-79
2023/03/25 02:44:04;;;;;;;4.72;1.13;;;8.70;86.10;;;;;;4696330;30;87063;-79
2023/03/25 02:46:31;;;;;;;30.67;3.88;;;8.80;85.30;;;;;;4696554;30;86542;-80
2023/03/25 02:49:06;;;;;;;5.55;0.73;;;8.80;85.00;;;;;;4695862;30;86735;-79
2023/03/25 02:51:37;;;;;;;6.97;1.20;;;8.80;84.10;;;;;;4696898;30;86377;-79
2023/03/25 02:54:07;;;;;;;8.75;1.10;;;8.80;84.10;;;;;;4695906;29;86271;-82
2023/03/25 02:56:35;;;;;;;7.78;1.13;;;8.90;83.00;;;;;;4694334;30;86658;-79
2023/03/25 02:59:03;;;;;;;3.80;0.70;;;8.90;82.90;;;;;;4696067;30;86494;-79
2023/03/25 03:01:28;;;;;;;7.43;1.00;;;8.90;82.70;;;;;;4695015;30;90632;-79
2023/03/25 03:03:55;;;;;;;4.63;1.60;;;8.90;82.70;;;;;;4696858;30;86675;-80
2023/03/25 03:42:26;;;;;;;8.88;1.08;;;8.90;81.80;;;;;;4718714;29;86354;-79
2023/03/25 03:44:57;;;;;;;7.15;0.85;;;8.90;81.60;;;;;;4745204;29;87812;-79
2023/03/25 03:47:28;;;;;;;14.13;1.77;;;8.80;81.40;;;;;;4736083;29;89285;-79
2023/03/25 03:50:03;;;;;;;6.95;1.30;;;8.90;82.20;;;;;;4745684;29;86260;-79
2023/03/25 03:53:05;;;;;;;9.00;0.98;;;8.90;81.00;;;;;;4742817;29;86309;-79
2023/03/25 03:55:53;;;;;;;12.40;1.35;;;8.90;81.10;;;;;;4747021;29;87304;-79
2023/03/25 03:58:33;;;;;;;9.40;1.27;;;9.00;81.20;;;;;;4745319;29;86452;-79
2023/03/25 04:01:26;;;;;;;8.80;1.08;;;8.90;81.70;;;;;;4744172;29;86398;-79
2023/03/25 04:10:58;;;;;;;9.30;2.05;;;9.00;82.00;;;;;;4744864;29;86430;-79
2023/03/25 04:13:29;;;;;;;9.23;1.33;;;9.00;81.80;;;;;;4743861;29;86557;-79
2023/03/25 04:15:59;;;;;;;7.13;1.38;;;8.90;82.20;;;;;;4746646;29;85955;-79
2023/03/25 04:18:27;;;;;;;7.75;1.17;;;8.90;82.50;;;;;;4743793;29;85865;-79
2023/03/25 04:20:53;;;;;;;11.57;1.80;;;8.90;82.10;;;;;;4745297;29;86480;-79
2023/03/25 04:23:20;;;;;;;9.88;1.23;;;8.90;82.20;;;;;;4744370;29;86292;-79
2023/03/25 04:29:08;;;;;;;11.35;1.25;;;8.90;81.90;;;;;;4743469;29;86349;-79
2023/03/25 04:31:34;;;;;;;8.32;1.15;;;8.90;82.00;;;;;;4750894;29;88283;-79
2023/03/25 04:34:01;;;;;;;12.88;1.40;;;8.90;82.10;;;;;;4745019;29;86059;-79
2023/03/25 04:36:36;;;;;;;11.20;1.15;;;8.90;82.50;;;;;;4728316;29;86648;-79
2023/03/25 04:39:02;;;;;;;9.05;1.48;;;8.90;82.40;;;;;;4743707;29;88436;-79
2023/03/25 04:41:28;;;;;;;8.68;0.88;;;8.90;82.20;;;;;;4743591;29;88673;-79
2023/03/25 04:43:53;;;;;;;8.52;1.70;;;8.90;82.80;;;;;;4743359;29;86293;-79
2023/03/25 04:46:19;;;;;;;9.93;1.30;;;8.90;82.10;;;;;;4746618;29;86562;-79
2023/03/25 04:48:46;;;;;;;10.05;1.30;;;9.00;82.10;;;;;;4742667;29;89386;-79
2023/03/25 04:51:13;;;;;;;10.35;1.42;;;9.00;82.50;;;;;;4746603;29;87267;-79
2023/03/25 04:53:39;;;;;;;14.85;1.17;;;9.00;82.00;;;;;;4743619;29;85954;-79
2023/03/25 04:56:11;;;;;;;13.63;1.42;;;9.00;83.10;;;;;;4744419;29;85877;-79
2023/03/25 04:58:38;;;;;;;9.98;1.20;;;9.00;84.90;;;;;;4746213;29;86716;-79
2023/03/25 05:01:04;;;;;;;10.55;1.75;;;8.80;85.10;;;;;;4744491;29;85928;-79
2023/03/25 05:03:31;;;;;;;7.18;1.42;;;8.80;85.10;;;;;;4746822;29;85867;-79
2023/03/25 05:05:57;;;;;;;10.30;1.85;;;8.80;86.50;;;;;;4750428;29;85996;-79
2023/03/25 05:08:23;;;;;;;6.68;1.10;;;8.80;85.20;;;;;;4741521;29;89290;-79
2023/03/25 05:10:49;;;;;;;10.52;2.25;;;8.80;86.30;;;;;;4743694;29;87518;-79
2023/03/25 05:13:15;;;;;;;8.60;1.30;;;8.70;86.50;;;;;;4746282;29;86487;-79
2023/03/25 05:15:42;;;;;;;10.00;1.55;;;8.70;85.70;;;;;;4742339;29;86158;-79
2023/03/25 05:18:09;;;;;;;11.55;1.80;;;8.80;85.70;;;;;;4744479;29;88135;-79
2023/03/25 05:24:00;;;;;;;5.55;0.90;;;8.80;84.50;;;;;;4742551;29;85968;-79
2023/03/25 05:26:33;;;;;;;10.43;1.70;;;8.90;83.50;;;;;;4744131;29;86244;-79
2023/03/25 05:29:07;;;;;;;11.30;1.98;;;9.00;83.40;;;;;;4745428;29;86308;-79
2023/03/25 05:31:33;;;;;;;19.92;2.47;;;9.00;83.10;;;;;;4726626;29;88343;-79
2023/03/25 05:33:58;;;;;;;5.68;1.15;;;9.00;83.90;;;;;;4742478;29;86288;-79
2023/03/25 05:40:03;;;;;;;4.78;1.20;;;9.10;82.90;;;;;;4743824;29;86531;-78
2023/03/25 05:42:28;;;;;;;9.23;1.33;;;9.00;83.00;;;;;;4744778;29;86624;-79
2023/03/25 05:44:54;;;;;;;11.77;1.40;;;9.00;83.20;;;;;;4744540;29;86254;-79
2023/03/25 05:47:22;;;;;;;9.60;1.98;;;9.00;84.10;;;;;;4742930;29;86131;-80
2023/03/25 05:49:48;;;;;;;8.18;1.08;;;9.00;84.20;;;;;;4744082;29;87348;-79
2023/03/25 05:52:18;;;;;;;10.93;1.05;;;8.90;84.30;;;;;;4742355;29;86615;-79
2023/03/25 05:54:45;;;;;;;7.57;1.23;;;8.90;84.20;;;;;;4741575;29;87132;-79
2023/03/25 05:57:11;;;;;;;11.07;1.40;;;8.90;84.60;;;;;;4744774;29;86544;-79
2023/03/25 05:59:37;;;;;;;10.63;1.13;;;8.90;85.10;;;;;;4743408;29;87585;-79
2023/03/25 06:02:06;;;;;;;9.93;1.17;;;8.80;85.60;;;;;;4746077;29;86940;-83
2023/03/25 06:04:36;;;;;;;13.27;2.42;;;8.80;85.30;;;;;;4745641;29;86381;-79
2023/03/25 06:07:08;;;;;;;8.70;1.52;;;8.80;85.50;;;;;;4746348;29;86121;-79
2023/03/25 06:09:34;;;;;;;9.80;1.85;;;8.80;85.60;;;;;;4750531;29;89236;-79
2023/03/25 06:12:02;;;;;;;8.77;1.27;;;8.80;85.40;;;;;;4744508;29;86960;-79
2023/03/25 06:14:28;;;;;;;10.68;1.88;;;8.90;85.30;;;;;;4743880;29;86608;-80
2023/03/25 06:17:04;;;;;;;8.25;1.35;;;8.90;85.40;;;;;;4730026;29;86356;-79
2023/03/25 06:19:30;;;;;;;11.05;1.77;;;8.90;84.90;;;;;;4746527;29;88448;-80
2023/03/25 06:21:57;;;;;;;7.55;1.92;;;9.00;85.00;;;;;;4753446;29;87545;-82
2023/03/25 06:24:23;;;;;;;10.48;1.75;;;8.90;85.10;;;;;;4751524;29;85833;-80
2023/03/25 06:26:50;;;;;;;10.75;2.20;;;8.90;85.10;;;;;;4755508;29;85846;-83
2023/03/25 06:29:15;;;;;;;11.48;1.55;;;8.90;85.10;;;;;;4745957;29;90910;-82
2023/03/25 06:31:41;;;;;;;15.88;2.25;;;8.90;85.10;;;;;;4753345;29;86786;-80
2023/03/25 06:34:07;;;;;;;14.45;1.60;;;8.80;85.50;;;;;;4752501;29;86390;-81
2023/03/25 06:36:33;;;;;;;12.45;2.28;;;8.90;84.80;;;;;;4752145;29;85873;-81
2023/03/25 06:38:59;;;;;;;11.95;1.63;;;8.90;84.40;;;;;;4747684;29;90430;-80
2023/03/25 06:41:24;;;;;;;7.32;1.27;;;8.90;85.00;;;;;;4746238;29;86670;-80
2023/03/25 06:43:50;;;;;;;14.02;1.58;;;8.90;84.70;;;;;;4745031;29;86048;-80
2023/03/25 06:46:16;;;;;;;15.77;1.80;;;8.90;84.60;;;;;;4730143;29;86600;-80
2023/03/25 06:48:41;;;;;;;12.40;1.50;;;8.90;84.50;;;;;;4745626;29;87020;-80
2023/03/25 06:51:07;;;;;;;11.57;1.70;;;8.90;84.20;;;;;;4748774;29;87661;-80
2023/03/25 06:53:33;;;;;;;10.93;1.83;;;8.90;84.20;;;;;;4749888;29;86191;-80
2023/03/25 06:55:58;;;;;;;17.95;2.00;;;8.90;84.30;;;;;;4749204;29;86552;-80
2023/03/25 06:58:33;;;;;;;15.50;1.92;;;8.90;83.90;;;;;;4749948;29;87759;-80
2023/03/25 07:01:02;;;;;;;16.45;2.83;;;8.90;84.40;;;;;;4748057;29;86900;-80
2023/03/25 07:03:28;;;;;;;11.35;2.33;;;9.10;82.70;;;;;;4749213;29;86160;-81
2023/03/25 07:05:54;;;;;;;11.43;1.85;;;9.20;81.60;;;;;;4754888;29;86351;-80
2023/03/25 07:08:20;;;;;;;12.48;2.08;;;9.20;81.90;;;;;;4749562;29;87061;-80
2023/03/25 07:10:45;;;;;;;9.50;1.65;;;9.30;81.70;;;;;;4749074;29;86544;-80
2023/03/25 07:13:14;;;;;;;8.90;1.55;;;9.40;81.10;;;;;;4733142;29;86942;-80
2023/03/25 07:15:40;;;;;;;12.20;1.80;;;9.50;80.30;;;;;;4740885;29;86603;-80
2023/03/25 07:18:05;;;;;;;14.75;1.85;;;9.60;81.00;;;;;;4748107;29;87562;-80
2023/03/25 07:20:31;;;;;;;8.77;1.63;;;9.70;80.00;;;;;;4747572;29;90989;-80
2023/03/25 07:22:57;;;;;;;14.18;2.08;;;9.80;79.60;;;;;;4749981;29;86181;-80
2023/03/25 07:25:22;;;;;;;10.82;1.63;;;9.90;78.80;;;;;;4748651;29;87001;-80
2023/03/25 07:27:48;;;;;;;7.82;1.10;;;9.90;78.00;;;;;;4742171;29;89521;-80
2023/03/25 07:30:14;;;;;;;10.48;2.13;;;9.80;78.20;;;;;;4750468;29;86225;-80
2023/03/25 07:32:39;;;;;;;13.80;1.50;;;9.80;78.70;;;;;;4751629;29;85941;-78
2023/03/25 07:35:08;;;;;;;9.85;1.70;;;9.70;77.70;;;;;;4746705;29;86434;-78
2023/03/25 07:37:52;;;;;;;11.15;1.60;;;9.80;79.10;;;;;;4750579;29;87522;-79
2023/03/25 07:40:18;;;;;;;9.25;1.35;;;9.70;78.70;;;;;;4747483;29;87078;-78
2023/03/25 07:42:44;;;;;;;13.07;1.73;;;9.80;78.50;;;;;;4745443;29;85907;-81
2023/03/25 07:45:10;;;;;;;15.30;2.28;;;9.90;79.60;;;;;;4751833;29;86608;-79
2023/03/25 07:47:36;;;;;;;17.20;1.77;;;9.80;78.30;;;;;;4743591;29;87236;-78
2023/03/25 07:50:03;;;;;;;10.25;1.65;;;9.80;78.60;;;;;;4746976;29;86789;-78
2023/03/25 07:52:29;;;;;;;14.00;1.52;;;9.80;79.50;;;;;;4734247;29;86535;-80
2023/03/25 07:54:54;;;;;;;14.90;1.98;;;9.70;80.50;;;;;;4757426;29;86757;-80
2023/03/25 07:57:20;;;;;;;14.95;1.67;;;9.70;79.40;;;;;;4763887;29;90651;-80
2023/03/25 07:59:49;;;;;;;14.98;1.83;;;9.70;79.50;;;;;;4758505;29;86028;-81
2023/03/25 08:02:15;;;;;;;12.15;1.60;;;9.80;79.20;;;;;;4758835;29;85842;-81
2023/03/25 08:04:41;;;;;;;13.27;1.77;;;9.90;79.00;;;;;;4761579;29;87013;-81
2023/03/25 08:07:18;;;;;;;11.18;1.98;;;9.90;77.90;;;;;;4751514;29;86349;-80
2023/03/25 08:10:05;;;;;;;12.52;1.88;;;10.00;78.90;;;;;;4749495;29;86897;-81
2023/03/25 08:12:36;;;;;;;17.42;2.15;;;10.10;78.70;;;;;;4729995;29;86745;-80
2023/03/25 08:15:02;;;;;;;15.38;2.28;;;10.00;77.60;;;;;;4702763;29;86223;-80
2023/03/25 08:17:28;;;;;;;13.35;2.65;;;10.10;77.20;;;;;;4695439;29;89166;-80
2023/03/25 08:19:54;;;;;;;13.05;2.20;;;10.20;77.80;;;;;;4687541;30;88506;-80
2023/03/25 08:22:20;;;;;;;16.27;3.05;;;10.30;77.30;;;;;;4688110;30;86769;-80
2023/03/25 08:24:46;;;;;;;16.85;2.08;;;10.50;77.70;;;;;;4702266;30;85905;-80
2023/03/25 08:27:11;;;;;;;12.38;2.47;;;10.60;76.20;;;;;;4702467;30;87526;-80
2023/03/25 08:29:38;;;;;;;14.93;2.05;;;10.70;76.40;;;;;;4701915;29;86662;-80
2023/03/25 08:32:03;;;;;;;11.90;1.92;;;10.90;74.80;;;;;;4700862;30;86509;-80
2023/03/25 08:34:38;;;;;;;15.35;2.13;;;10.90;74.70;;;;;;4700547;30;86112;-80
2023/03/25 08:37:06;;;;;;;16.85;2.65;;;10.90;75.00;;;;;;4690709;30;90664;-80
2023/03/25 08:39:38;;;;;;;15.25;2.40;;;10.80;74.10;;;;;;4712794;29;86896;-80
2023/03/25 08:42:05;;;;;;;17.70;2.53;;;10.90;74.90;;;;;;4725918;29;86066;-79
2023/03/25 08:44:31;;;;;;;10.68;2.30;;;10.90;74.30;;;;;;4744225;29;86411;-80
2023/03/25 08:46:56;;;;;;;15.80;2.30;;;11.00;75.30;;;;;;4745974;29;87068;-80
2023/03/25 08:49:22;;;;;;;9.30;2.53;;;11.00;74.20;;;;;;4744089;29;89647;-80
2023/03/25 08:51:48;;;;;;;9.95;1.95;;;11.00;74.40;;;;;;4747610;29;86513;-80
2023/03/25 08:54:14;;;;;;;13.90;2.50;;;11.10;72.80;;;;;;4749731;29;86318;-80
2023/03/25 08:56:39;;;;;;;9.88;1.83;;;10.90;73.90;;;;;;4748264;29;87228;-80
2023/03/25 09:02:28;;;;;;;12.57;2.42;;;10.60;76.40;;;;;;4781826;29;86439;-80
2023/03/25 09:04:53;;;;;;;19.30;2.97;;;10.60;76.30;;;;;;4775220;29;86569;-80
2023/03/25 09:07:19;;;;;;;17.88;2.40;;;10.80;77.30;;;;;;4785572;29;87378;-80
2023/03/25 09:09:45;;;;;;;16.73;2.20;;;10.90;76.60;;;;;;4775039;29;90375;-80
2023/03/25 09:12:12;;;;;;;15.50;3.00;;;11.10;76.00;;;;;;4782993;29;86702;-80
2023/03/25 09:14:40;;;;;;;24.38;3.25;;;11.30;76.20;;;;;;4783376;29;86558;-80
2023/03/25 09:17:06;;;;;;;14.48;2.50;;;11.30;74.70;;;;;;4790555;29;87329;-80
2023/03/25 09:19:36;;;;;;;15.52;3.08;;;11.40;73.70;;;;;;4782601;29;86349;-80
2023/03/25 09:22:33;;;;;;;17.00;2.40;;;11.50;72.80;;;;;;4783088;29;86129;-81
2023/03/25 09:24:59;;;;;;;15.10;3.10;;;11.70;74.80;;;;;;4794754;29;86098;-81
2023/03/25 09:27:24;;;;;;;19.50;3.30;;;11.80;72.60;;;;;;4786274;29;87629;-80
2023/03/25 09:29:50;;;;;;;13.18;2.47;;;12.00;72.10;;;;;;4781837;29;86835;-79
2023/03/25 09:32:17;;;;;;;17.00;3.05;;;12.20;71.80;;;;;;4785318;29;86297;-81
2023/03/25 10:44:52;;;;;;;17.40;2.85;;;11.30;75.90;;;;;;5450021;24;87861;-81
2023/03/25 10:59:59;;;;;;;15.05;2.58;;;11.00;77.10;;;;;;5271087;24;86503;-82
2023/03/25 11:02:27;;;;;;;17.63;2.63;;;11.30;76.70;;;;;;4800194;29;85023;-81
2023/03/25 11:05:03;;;;;;;22.40;3.25;;;11.90;75.40;;;;;;4804775;29;89111;-81
2023/03/25 11:07:48;;;;;;;13.93;2.53;;;12.20;71.90;;;;;;4785685;29;87844;-81
2023/03/25 11:10:36;;;;;;;14.77;2.00;;;12.10;71.10;;;;;;4795874;29;85666;-81
2023/03/25 11:13:10;;;;;;;16.27;2.53;;;12.10;71.10;;;;;;4796036;29;85907;-81
2023/03/25 11:15:37;;;;;;;;;;;12.40;71.50;;;;;;4799919;29;86754;-81
2023/03/25 11:19:05;;;;;;;12.48;2.03;;;12.80;71.60;;;;;;4794499;29;89740;-82
2023/03/25 11:21:39;;;;;;;16.38;3.30;;;12.80;67.40;;;;;;4714276;29;86752;-81
2023/03/25 11:24:11;;;;;;;11.43;2.10;;;12.40;69.30;;;;;;4716779;30;85870;-81
2023/03/25 11:27:00;;;;;;;12.82;2.00;;;12.50;70.20;;;;;;4710659;29;86821;-81
2023/03/25 11:29:54;;;;;;;19.85;2.70;;;12.80;67.70;;;;;;4683644;30;86428;-80
2023/03/25 11:33:05;;;;;;;15.98;2.13;;;13.20;67.20;;;;;;4680356;30;86030;-81
2023/03/25 11:35:41;;;;;;;13.13;1.35;;;13.40;66.50;;;;;;4694086;30;85959;-81
2023/03/25 11:38:36;;;;;;;13.23;2.00;;;13.20;65.10;;;;;;4692994;30;88092;-80
2023/03/25 11:41:12;;;;;;;10.88;1.67;;;13.00;65.70;;;;;;4666390;30;86741;-79
2023/03/25 11:43:39;;;;;;;14.02;2.40;;;12.80;67.20;;;;;;4648975;30;87247;-81
2023/03/25 11:46:17;;;;;;;12.63;2.53;;;12.80;69.90;;;;;;4669085;30;86136;-80
2023/03/25 11:48:49;;;;;;;11.32;2.13;;;13.00;68.80;;;;;;4666320;30;89213;-80
2023/03/25 11:51:28;;;;;;;13.65;2.47;;;13.50;65.70;;;;;;4667049;30;87444;-79
2023/03/25 11:54:17;;;;;;;10.10;1.88;;;13.90;66.60;;;;;;4691963;30;85989;-81
2023/03/25 11:56:49;;;;;;;19.25;2.28;;;13.70;64.60;;;;;;4651770;30;86825;-79
2023/03/25 11:59:22;;;;;;;11.07;2.13;;;13.60;64.10;;;;;;4656208;30;86233;-79
2023/03/25 12:01:49;;;;;;;11.10;1.58;;;13.50;63.90;;;;;;4670243;30;86958;-79
2023/03/25 12:04:23;;;;;;;12.15;2.28;;;13.30;63.20;;;;;;4663083;30;86665;-79
2023/03/25 12:07:00;;;;;;;14.35;2.10;;;13.10;64.40;;;;;;4659993;30;86169;-80
2023/03/25 12:09:30;;;;;;;12.40;1.38;;;13.00;65.80;;;;;;4674293;30;86757;-79
2023/03/25 12:22:09;;;;;;;11.10;1.60;;;12.50;70.00;;;;;;4736240;29;86884;-80
2023/03/25 12:24:56;;;;;;;13.70;1.70;;;12.40;70.50;;;;;;4731328;29;87353;-77
2023/03/25 12:27:43;;;;;;;14.90;1.90;;;12.10;71.50;;;;;;4743045;29;86125;-80
2023/03/25 12:30:50;;;;;;;13.40;2.08;;;11.80;74.30;;;;;;4751346;29;86521;-80
2023/03/25 12:33:43;;;;;;;12.23;2.67;;;11.40;78.50;;;;;;4753781;29;87970;-80
2023/03/25 12:36:37;;;;;;;20.85;3.47;;;11.20;80.30;;;;;;4731677;29;86569;-80
2023/03/25 12:39:22;;;;;;;11.93;2.13;;;10.80;81.30;;;;;;4754429;29;86352;-80
2023/03/25 12:42:12;;;;;;;11.65;1.52;;;10.50;82.80;;;;;;4781574;29;86276;-80
2023/03/25 12:44:49;;;;;;;9.95;1.75;;;10.30;83.50;;;;;;4781895;29;87601;-80
2023/03/25 12:47:29;;;;;;;8.30;2.10;;;10.30;84.40;;;;;;4778626;29;89046;-80
2023/03/25 12:50:26;;;;;;;15.55;1.92;;;10.30;86.20;;;;;;4783877;29;87265;-80
2023/03/25 12:53:03;;;;;;;11.43;2.25;;;10.30;86.40;;;;;;4771803;29;86008;-79
2023/03/25 12:56:02;;;;;;;14.82;2.17;;;10.30;87.60;;;;;;4780567;29;86465;-79
2023/03/25 12:58:42;;;;;;;15.23;2.67;;;10.20;86.40;;;;;;4782238;29;87529;-80
2023/03/25 13:01:27;;;;;;;18.73;2.22;;;10.10;86.60;;;;;;4782863;29;86371;-80
2023/03/25 13:04:37;;;;;;;12.30;1.80;;;10.30;89.00;;;;;;4796988;29;85913;-81
2023/03/25 13:07:12;;;;;;;13.40;1.42;;;10.80;87.00;;;;;;4801087;29;86731;-80
2023/03/25 13:09:56;;;;;;;10.93;1.35;;;11.10;84.80;;;;;;4803014;29;85976;-81
2023/03/25 13:12:46;;;;;;;11.55;1.45;;;11.10;82.40;;;;;;4801684;29;85487;-81
2023/03/25 13:20:33;;;;;;;10.73;2.08;;;11.10;79.00;;;;;;5032223;24;87409;-81
2023/03/25 13:30:48;;;;;;;16.33;2.28;;;11.30;79.40;;;;;;4862054;24;86931;-81
2023/03/25 13:36:22;;;;;;;14.57;1.45;;;10.90;80.10;;;;;;4806363;24;87538;-81
2023/03/25 13:39:04;;;;;;;19.48;2.22;;;10.60;82.60;;;;;;4757302;29;87431;-80
2023/03/25 13:41:39;;;;;;;11.65;1.80;;;10.40;85.90;;;;;;4785290;29;87097;-80
2023/03/25 13:44:16;;;;;;;5.75;0.80;;;10.20;86.60;;;;;;4786196;29;86283;-80
2023/03/25 13:49:20;;;;;;;8.77;1.63;;;9.90;89.00;;;;;;4783256;29;87329;-80
2023/03/25 13:51:46;;;;;;;8.32;1.27;;;10.00;90.40;;;;;;4784346;29;89296;-80
2023/03/25 13:54:41;;;;;;;15.55;2.22;;;10.00;88.20;;;;;;4783702;29;86374;-79
2023/03/25 13:57:28;;;;;;;9.68;1.38;;;10.10;87.70;;;;;;4783849;29;85883;-80
2023/03/25 14:00:34;;;;;;;10.10;1.65;;;10.20;89.30;;;;;;4779116;29;88296;-80
2023/03/25 14:03:37;;;;;;;14.82;1.90;;;10.10;90.00;;;;;;4780712;29;86762;-80
2023/03/25 14:06:17;;;;;;;16.65;2.30;;;10.10;89.90;;;;;;4776457;29;85838;-80
2023/03/25 14:09:26;;;;;;;10.05;2.33;;;10.10;89.00;;;;;;4783112;29;85932;-81
2023/03/25 14:12:08;;;;;;;19.35;2.63;;;10.20;88.00;;;;;;4724587;29;86501;-82
2023/03/25 14:14:45;;;;;;;15.70;2.08;;;10.50;88.90;;;;;;4712311;29;89889;-80
2023/03/25 14:30:23;;;;;;;18.25;2.08;;;12.80;75.20;;;;;;5284392;24;87446;-83
2023/03/25 14:32:50;;;;;;;12.05;2.00;;;13.10;74.30;;;;;;4801916;29;86178;-81
2023/03/25 14:35:37;;;;;;;17.60;2.08;;;13.50;73.00;;;;;;4795959;29;86025;-81
2023/03/25 14:40:58;;;;;;;7.20;1.38;;;14.40;69.50;;;;;;4979714;24;86558;-81
2023/03/25 14:43:36;;;;;;;15.52;2.20;;;14.40;66.90;;;;;;4790607;29;86594;-81
2023/03/25 14:46:02;;;;;;;13.80;2.08;;;14.20;68.80;;;;;;4797620;29;88899;-81
2023/03/25 14:48:43;;;;;;;8.18;1.35;;;14.40;67.20;;;;;;4789002;29;86961;-81
2023/03/25 14:51:24;;;;;;;15.50;2.35;;;14.30;65.80;;;;;;4791127;29;86163;-81
2023/03/25 14:54:10;;;;;;;12.02;1.92;;;14.00;65.00;;;;;;4771556;29;87880;-81
2023/03/25 14:56:50;;;;;;;9.57;1.38;;;13.80;66.00;;;;;;4791222;29;86319;-81
2023/03/25 14:59:20;;;;;;;9.50;1.98;;;14.20;65.50;;;;;;4789720;29;86441;-81
2023/03/25 15:01:47;;;;;;;12.70;1.75;;;14.50;62.10;;;;;;4786710;29;86229;-80
2023/03/25 15:04:17;;;;;;;9.23;1.55;;;14.70;60.60;;;;;;4793490;29;85938;-81
2023/03/25 15:06:45;;;;;;;13.20;2.55;;;14.60;59.50;;;;;;4791950;29;86651;-81
2023/03/25 15:09:24;;;;;;;8.65;1.65;;;14.50;62.20;;;;;;4789717;29;86756;-81
2023/03/25 15:12:18;;;;;;;11.20;1.48;;;14.40;62.10;;;;;;4791342;29;86214;-80
2023/03/25 15:14:47;;;;;;;;;;;15.00;59.00;;;;;;4724363;29;87315;-80
2023/03/25 15:17:53;;;;;;;12.02;1.80;;;15.30;57.60;;;;;;4724522;29;88777;-80
2023/03/25 15:20:21;;;;;;;9.88;1.58;;;15.60;54.70;;;;;;4701816;29;86433;-81
2023/03/25 15:23:28;;;;;;;6.60;1.00;;;16.00;54.20;;;;;;4714147;29;88182;-81
2023/03/25 15:26:03;;;;;;;6.75;1.00;;;15.80;54.60;;;;;;4680337;30;86309;-81
2023/03/25 15:28:46;;;;;;;9.68;1.48;;;15.10;56.30;;;;;;4664964;30;89921;-80
2023/03/25 15:31:28;;;;;;;6.60;1.20;;;14.80;58.40;;;;;;4688912;30;86120;-81
2023/03/25 15:34:20;;;;;;;10.95;1.00;;;14.40;58.20;;;;;;4688258;30;86875;-81
2023/03/25 15:37:09;;;;;;;7.80;1.60;;;14.00;58.80;;;;;;4689989;30;86497;-81
2023/03/25 15:39:41;;;;;;;7.05;1.20;;;13.80;61.00;;;;;;4684930;30;86167;-81
2023/03/25 15:42:55;;;;;;;6.22;1.10;;;13.70;63.80;;;;;;4691986;30;87848;-81
2023/03/25 15:45:54;;;;;;;7.10;1.13;;;13.90;63.00;;;;;;4632901;30;86087;-81
2023/03/25 15:48:23;;;;;;;7.63;1.27;;;13.80;63.50;;;;;;4638153;30;88645;-81
2023/03/25 15:51:18;;;;;;;9.35;1.27;;;14.40;61.10;;;;;;4633216;30;87684;-82
2023/03/25 15:54:32;;;;;;;8.50;1.40;;;14.70;61.50;;;;;;4672346;30;86747;-81
2023/03/25 15:57:32;;;;;;;4.97;0.93;;;14.20;62.80;;;;;;4646063;30;87516;-81
2023/03/25 16:00:43;;;;;;;8.10;1.40;;;13.70;64.20;;;;;;4627690;30;88476;-82
2023/03/25 16:03:25;;;;;;;9.52;1.30;;;13.20;66.00;;;;;;4622605;30;86623;-77
2023/03/25 16:05:56;;;;;;;6.88;1.10;;;12.70;68.40;;;;;;4642456;30;87131;-79
2023/03/25 16:08:46;;;;;;;8.52;1.27;;;12.30;69.40;;;;;;4595016;30;87290;-79
2023/03/25 16:11:15;;;;;;;7.68;1.05;;;12.30;70.10;;;;;;4635912;30;86959;-79
2023/03/25 16:17:16;;;;;;;6.97;1.08;;;13.80;63.90;;;;;;4687804;30;86417;-79
2023/03/25 16:19:45;;;;;;;13.75;1.35;;;14.50;60.40;;;;;;4688575;30;86811;-79
2023/03/25 16:22:32;;;;;;;6.60;1.33;;;14.70;60.70;;;;;;4703785;29;87532;-79
2023/03/25 16:25:04;;;;;;;9.63;1.40;;;15.00;60.20;;;;;;4722693;29;91436;-79
2023/03/25 16:27:33;;;;;;;10.68;1.95;;;14.80;60.60;;;;;;4723426;29;86402;-79
2023/03/25 16:29:59;;;;;;;13.18;1.85;;;14.10;63.20;;;;;;4722147;29;86600;-79
2023/03/25 16:32:31;;;;;;;6.68;1.40;;;13.60;64.90;;;;;;4722752;29;87237;-79
2023/03/25 16:34:57;;;;;;;13.40;1.83;;;13.40;65.80;;;;;;4782168;29;89971;-79
2023/03/25 16:40:46;;;;;;;7.97;1.52;;;13.40;66.90;;;;;;4775880;29;86407;-79
2023/03/25 16:43:21;;;;;;;11.13;1.88;;;13.30;66.40;;;;;;4762561;29;89621;-79
2023/03/25 16:45:48;;;;;;;6.90;1.60;;;13.10;67.30;;;;;;4776711;29;91791;-79
2023/03/25 16:48:22;;;;;;;11.25;1.75;;;13.10;67.30;;;;;;4784390;29;85981;-79
2023/03/25 17:00:55;;;;;;;15.63;2.22;;;12.90;65.50;;;;;;4777198;29;86594;-79
2023/03/25 17:03:45;;;;;;;13.55;2.10;;;12.80;66.00;;;;;;4777142;29;86195;-79
2023/03/25 17:06:34;;;;;;;11.52;1.90;;;12.60;66.80;;;;;;4777202;29;86810;-79
2023/03/25 17:19:05;;;;;;;9.43;1.85;;;12.40;66.10;;;;;;4775681;29;90488;-80
2023/03/25 17:21:34;;;;;;;16.83;2.33;;;12.30;66.70;;;;;;4778809;29;86846;-80
2023/03/25 17:24:19;;;;;;;15.55;2.50;;;12.20;67.00;;;;;;4762753;29;86880;-80
2023/03/25 17:27:15;;;;;;;9.82;1.75;;;12.20;67.20;;;;;;4755455;29;85755;-80
2023/03/25 17:29:58;;;;;;;14.77;2.10;;;12.10;68.10;;;;;;4724620;29;88044;-79
2023/03/25 17:32:25;;;;;;;20.10;2.33;;;12.00;68.30;;;;;;4723202;29;89090;-80